createdAt,value
2019-03-16T00:02:16.144Z,1.37
2019-03-16T00:04:44.488Z,1.73
2019-03-16T00:07:12.837Z,2.00
2019-03-16T00:09:41.204Z,1.80
2019-03-16T00:12:09.590Z,0.80
2019-03-16T00:14:37.968Z,1.20
2019-03-16T00:17:06.343Z,0.87
2019-03-16T00:19:34.707Z,0.80
2019-03-16T00:22:03.436Z,1.50
2019-03-16T00:24:31.814Z,1.03
2019-03-16T00:27:00.262Z,2.00
2019-03-16T00:29:28.608Z,0.60
2019-03-16T00:31:56.978Z,3.50
2019-03-16T00:34:25.342Z,0.90
2019-03-16T00:36:53.695Z,0.50
2019-03-16T00:39:22.077Z,0.60
2019-03-16T00:41:50.462Z,1.67
2019-03-16T00:44:19.150Z,0.70
2019-03-16T00:46:47.493Z,5.50
2019-03-16T00:49:16.127Z,1.33
2019-03-16T00:51:44.796Z,1.33
2019-03-16T00:54:13.161Z,0.70
2019-03-16T00:56:41.575Z,0.60
2019-03-16T00:59:10.055Z,2.30
2019-03-16T01:01:38.507Z,1.27
2019-03-16T01:04:06.947Z,0.50
2019-03-16T01:06:35.320Z,3.10
2019-03-16T01:09:05.173Z,0.67
2019-03-16T01:11:33.890Z,2.63
2019-03-16T01:14:02.290Z,1.00
2019-03-16T01:16:30.775Z,0.73
2019-03-16T01:18:59.193Z,1.53
2019-03-16T01:21:27.559Z,0.50
2019-03-16T01:23:55.916Z,0.63
2019-03-16T01:26:24.371Z,0.50
2019-03-16T01:28:52.736Z,1.57
2019-03-16T01:31:21.146Z,0.50
2019-03-16T01:33:49.592Z,0.57
2019-03-16T01:36:18.287Z,0.40
2019-03-16T01:38:46.666Z,1.23
2019-03-16T01:41:15.067Z,1.33
2019-03-16T01:43:43.502Z,0.70
2019-03-16T01:46:11.949Z,1.70
2019-03-16T01:48:40.565Z,0.50
2019-03-16T01:51:08.966Z,0.67
2019-03-16T01:53:37.427Z,0.50
2019-03-16T01:56:05.882Z,0.90
2019-03-16T01:58:34.314Z,1.70
2019-03-16T02:01:02.712Z,0.70
2019-03-16T02:03:31.076Z,2.47
2019-03-16T02:05:59.569Z,0.60
2019-03-16T02:08:28.464Z,0.60
2019-03-16T02:10:56.910Z,0.80
2019-03-16T02:13:25.294Z,0.57
2019-03-16T02:15:53.952Z,0.60
2019-03-16T02:18:22.311Z,0.30
2019-03-16T02:20:50.753Z,5.57
2019-03-16T02:23:19.231Z,1.43
2019-03-16T02:25:47.682Z,0.93
2019-03-16T02:28:16.038Z,0.50
2019-03-16T02:30:44.513Z,0.40
2019-03-16T02:33:13.858Z,0.60
2019-03-16T02:35:42.506Z,0.50
2019-03-16T02:38:10.944Z,0.70
2019-03-16T02:40:39.614Z,0.87
2019-03-16T02:43:07.988Z,1.03
2019-03-16T02:45:36.458Z,0.83
2019-03-16T02:48:05.139Z,0.60
2019-03-16T02:50:33.933Z,0.40
2019-03-16T02:53:02.400Z,0.50
2019-03-16T02:55:30.807Z,0.40
2019-03-16T02:57:59.193Z,0.63
2019-03-16T03:00:27.690Z,0.47
2019-03-16T03:02:56.085Z,0.50
2019-03-16T03:05:24.635Z,0.50
2019-03-16T03:07:53.080Z,0.40
2019-03-16T03:10:21.565Z,0.47
2019-03-16T03:12:49.965Z,0.87
2019-03-16T03:15:18.436Z,0.50
2019-03-16T03:17:46.904Z,0.50
2019-03-16T03:20:15.368Z,0.93
2019-03-16T03:22:43.800Z,1.90
2019-03-16T03:25:12.503Z,3.90
2019-03-16T03:27:40.872Z,0.40
2019-03-16T03:30:09.496Z,0.80
2019-03-16T03:32:37.936Z,0.80
2019-03-16T03:35:06.533Z,0.47
2019-03-16T03:37:34.890Z,0.53
2019-03-16T03:40:03.378Z,0.60
2019-03-16T03:42:31.828Z,0.40
2019-03-16T03:45:00.389Z,0.40
2019-03-16T03:47:28.911Z,0.60
2019-03-16T03:49:57.315Z,0.30
2019-03-16T03:52:25.692Z,1.60
2019-03-16T03:54:54.127Z,0.70
2019-03-16T03:57:22.598Z,0.40
2019-03-16T03:59:50.965Z,0.40
2019-03-16T04:02:19.414Z,0.40
2019-03-16T04:04:47.927Z,1.23
2019-03-16T04:07:19.796Z,0.50
2019-03-16T04:09:46.562Z,0.70
2019-03-16T04:12:15.028Z,0.40
2019-03-16T04:14:43.578Z,0.97
2019-03-16T04:17:12.403Z,0.50
2019-03-16T04:19:40.859Z,0.87
2019-03-16T04:22:09.295Z,1.47
2019-03-16T04:24:37.799Z,0.40
2019-03-16T04:27:15.688Z,1.40
2019-03-16T04:29:36.455Z,0.50
2019-03-16T04:32:04.894Z,0.40
2019-03-16T04:34:33.241Z,0.40
2019-03-16T04:37:01.609Z,0.60
2019-03-16T04:39:29.974Z,0.40
2019-03-16T04:41:58.465Z,0.40
2019-03-16T04:44:26.843Z,0.37
2019-03-16T04:46:55.210Z,0.60
2019-03-16T04:49:23.566Z,0.90
2019-03-16T04:51:52.368Z,0.50
2019-03-16T04:54:20.741Z,0.50
2019-03-16T04:56:49.240Z,1.23
2019-03-16T04:59:17.729Z,0.40
2019-03-16T05:01:46.090Z,2.00
2019-03-16T05:04:14.512Z,0.50
2019-03-16T05:06:42.913Z,0.40
2019-03-16T05:09:11.313Z,0.50
2019-03-16T05:11:39.728Z,1.70
2019-03-16T05:14:08.142Z,0.80
2019-03-16T05:16:36.599Z,1.53
2019-03-16T05:19:05.037Z,0.60
2019-03-16T05:21:33.912Z,1.53
2019-03-16T05:24:02.959Z,0.83
2019-03-16T05:26:31.637Z,0.50
2019-03-16T05:29:00.035Z,0.53
2019-03-16T05:31:28.576Z,1.23
2019-03-16T05:33:57.028Z,2.00
2019-03-16T05:36:25.482Z,0.60
2019-03-16T05:38:53.988Z,0.90
2019-03-16T05:41:22.433Z,1.23
2019-03-16T05:43:51.032Z,0.60
2019-03-16T05:46:19.392Z,0.70
2019-03-16T05:48:47.759Z,0.60
2019-03-16T05:51:16.181Z,0.90
2019-03-16T05:53:44.543Z,0.47
2019-03-16T05:56:12.935Z,0.57
2019-03-16T05:58:41.316Z,0.40
2019-03-16T06:01:09.750Z,3.33
2019-03-16T06:03:38.125Z,1.63
2019-03-16T06:06:06.556Z,1.40
2019-03-16T06:08:34.930Z,3.70
2019-03-16T06:11:03.399Z,1.43
2019-03-16T06:13:31.766Z,1.40
2019-03-16T06:16:00.159Z,1.83
2019-03-16T06:18:28.526Z,1.73
2019-03-16T06:20:56.904Z,1.53
2019-03-16T06:23:25.346Z,0.80
2019-03-16T06:25:53.748Z,0.70
2019-03-16T06:28:22.196Z,0.87
2019-03-16T06:30:51.164Z,1.13
2019-03-16T06:33:19.609Z,0.80
2019-03-16T06:35:47.976Z,2.67
2019-03-16T06:38:16.378Z,2.10
2019-03-16T06:40:44.858Z,0.70
2019-03-16T06:43:13.494Z,4.63
2019-03-16T06:45:41.989Z,1.80
2019-03-16T06:48:10.438Z,1.10
2019-03-16T06:50:38.883Z,1.47
2019-03-16T06:53:07.288Z,2.57
2019-03-16T06:55:35.655Z,4.60
2019-03-16T06:58:04.188Z,1.77
2019-03-16T07:00:32.648Z,1.13
2019-03-16T07:03:01.032Z,3.83
2019-03-16T07:05:38.129Z,4.20
2019-03-16T07:07:59.551Z,4.10
2019-03-16T07:10:28.022Z,3.30
2019-03-16T07:12:56.389Z,1.70
2019-03-16T07:15:24.838Z,0.70
2019-03-16T07:17:53.492Z,1.37
2019-03-16T07:20:21.948Z,2.93
2019-03-16T07:22:50.427Z,0.83
2019-03-16T07:25:19.123Z,9.93
2019-03-16T07:27:47.597Z,3.27
2019-03-16T07:30:16.060Z,5.80
2019-03-16T07:32:44.513Z,4.07
2019-03-16T07:35:12.963Z,11.90
2019-03-16T07:37:41.365Z,4.97
2019-03-16T07:40:09.832Z,16.20
2019-03-16T07:42:38.298Z,5.53
2019-03-16T07:45:08.580Z,7.60
2019-03-16T07:47:37.489Z,2.77
2019-03-16T07:50:05.940Z,3.57
2019-03-16T07:52:34.380Z,6.47
2019-03-16T07:55:02.843Z,4.10
2019-03-16T07:57:40.017Z,2.13
2019-03-16T08:00:01.432Z,3.83
2019-03-16T08:02:29.860Z,2.20
2019-03-16T08:04:58.315Z,6.30
2019-03-16T08:07:26.789Z,5.27
2019-03-16T08:09:55.436Z,3.50
2019-03-16T08:12:23.803Z,4.63
2019-03-16T08:14:52.186Z,9.27
2019-03-16T08:17:20.603Z,6.93
2019-03-16T08:19:48.986Z,7.30
2019-03-16T08:22:17.652Z,8.87
2019-03-16T08:24:46.034Z,10.60
2019-03-16T08:27:14.444Z,3.60
2019-03-16T08:29:43.000Z,6.50
2019-03-16T08:32:11.834Z,9.13
2019-03-16T08:34:40.207Z,5.53
2019-03-16T08:37:08.582Z,5.23
2019-03-16T08:39:36.999Z,6.90
2019-03-16T08:42:05.493Z,4.80
2019-03-16T08:44:33.925Z,3.50
2019-03-16T08:47:02.371Z,7.63
2019-03-16T08:49:30.805Z,4.87
2019-03-16T08:51:59.184Z,2.50
2019-03-16T08:54:27.633Z,5.57
2019-03-16T08:56:56.060Z,7.93
2019-03-16T08:59:24.731Z,4.57
2019-03-16T09:01:53.185Z,5.70
2019-03-16T09:04:21.588Z,4.13
2019-03-16T09:06:52.813Z,5.17
2019-03-16T09:09:20.149Z,8.73
2019-03-16T09:11:48.528Z,3.00
2019-03-16T09:14:16.889Z,3.10
2019-03-16T09:16:45.476Z,3.83
2019-03-16T09:19:13.983Z,7.97
2019-03-16T09:21:42.473Z,5.47
2019-03-16T09:24:10.922Z,10.20
2019-03-16T09:26:39.374Z,2.97
2019-03-16T09:29:15.060Z,2.97
2019-03-16T09:31:37.853Z,2.23
2019-03-16T09:34:06.238Z,4.63
2019-03-16T09:36:34.607Z,7.87
2019-03-16T09:39:04.249Z,4.77
2019-03-16T09:41:32.639Z,1.23
2019-03-16T09:44:02.145Z,5.53
2019-03-16T09:46:30.675Z,2.87
2019-03-16T09:48:59.125Z,2.10
2019-03-16T09:51:27.860Z,2.50
2019-03-16T09:53:56.413Z,4.57
2019-03-16T09:56:24.794Z,5.40
2019-03-16T09:58:53.206Z,1.43
2019-03-16T10:01:21.568Z,1.67
2019-03-16T10:03:49.940Z,4.87
2019-03-16T10:06:18.853Z,4.13
2019-03-16T10:08:47.317Z,5.13
2019-03-16T10:11:15.938Z,4.50
2019-03-16T10:13:44.326Z,5.80
2019-03-16T10:16:12.711Z,7.60
2019-03-16T10:18:41.087Z,7.23
2019-03-16T10:21:09.455Z,3.90
2019-03-16T10:23:38.102Z,3.50
2019-03-16T10:26:06.928Z,4.37
2019-03-16T10:28:43.755Z,3.90
2019-03-16T10:31:05.396Z,2.40
2019-03-16T10:33:33.777Z,2.97
2019-03-16T10:36:02.230Z,5.30
2019-03-16T10:38:30.670Z,3.97
2019-03-16T10:40:59.181Z,6.93
2019-03-16T10:43:27.684Z,2.97
2019-03-16T10:45:56.038Z,1.17
2019-03-16T10:48:24.537Z,3.13
2019-03-16T10:50:52.968Z,1.60
2019-03-16T10:53:21.322Z,1.27
2019-03-16T10:55:49.742Z,6.60
2019-03-16T10:58:18.488Z,3.13
2019-03-16T11:00:46.844Z,6.53
2019-03-16T11:03:15.333Z,2.70
2019-03-16T11:05:43.675Z,1.60
2019-03-16T11:08:12.052Z,2.97
2019-03-16T11:10:40.416Z,9.20
2019-03-16T11:13:08.775Z,5.70
2019-03-16T11:15:37.116Z,3.07
2019-03-16T11:18:05.514Z,2.57
2019-03-16T11:20:33.903Z,1.83
2019-03-16T11:23:02.276Z,1.70
2019-03-16T11:25:30.768Z,2.70
2019-03-16T11:27:59.177Z,1.07
2019-03-16T11:30:27.645Z,1.63
2019-03-16T11:32:56.099Z,2.30
2019-03-16T11:35:24.480Z,1.83
2019-03-16T11:37:52.943Z,2.47
2019-03-16T11:40:21.416Z,0.87
2019-03-16T11:42:49.935Z,0.90
2019-03-16T11:45:18.355Z,1.23
2019-03-16T11:47:46.890Z,0.90
2019-03-16T11:50:15.320Z,0.87
2019-03-16T11:52:43.759Z,1.93
2019-03-16T11:55:12.214Z,1.47
2019-03-16T11:57:40.800Z,1.40
2019-03-16T12:00:09.283Z,3.50
2019-03-16T12:02:37.687Z,1.00
2019-03-16T12:05:06.707Z,2.53
2019-03-16T12:07:35.065Z,1.40
2019-03-16T12:10:03.524Z,1.83
2019-03-16T12:12:31.975Z,0.63
2019-03-16T12:15:00.504Z,2.50
2019-03-16T12:17:28.923Z,3.23
2019-03-16T12:19:57.368Z,3.53
2019-03-16T12:22:26.083Z,3.53
2019-03-16T12:24:54.444Z,2.30
2019-03-16T12:27:22.864Z,1.80
2019-03-16T12:29:51.246Z,0.70
2019-03-16T12:32:19.608Z,4.80
2019-03-16T12:34:48.041Z,0.60
2019-03-16T12:37:16.463Z,3.97
2019-03-16T12:39:44.833Z,4.27
2019-03-16T12:42:13.252Z,1.07
2019-03-16T12:44:41.643Z,1.73
2019-03-16T12:47:10.084Z,2.83
2019-03-16T12:49:38.522Z,3.33
2019-03-16T12:52:06.971Z,0.60
2019-03-16T12:54:35.343Z,1.63
2019-03-16T12:57:03.859Z,0.90
2019-03-16T12:59:32.337Z,24.27
2019-03-16T13:02:00.955Z,58.83
2019-03-16T13:04:29.337Z,38.07
2019-03-16T13:06:57.837Z,27.97
2019-03-16T13:09:26.286Z,22.40
2019-03-16T13:11:54.718Z,29.27
2019-03-16T13:14:23.124Z,16.23
2019-03-16T13:16:51.596Z,18.13
2019-03-16T13:19:19.972Z,21.10
2019-03-16T13:21:48.352Z,50.27
2019-03-16T13:24:16.904Z,73.93
2019-03-16T13:26:45.326Z,55.70
2019-03-16T13:29:13.710Z,51.97
2019-03-16T13:31:42.120Z,50.57
2019-03-16T13:34:10.535Z,72.20
2019-03-16T13:36:38.918Z,39.23
2019-03-16T13:39:07.728Z,33.53
2019-03-16T13:41:36.112Z,35.00
2019-03-16T13:44:04.584Z,38.93
2019-03-16T13:46:32.968Z,35.67
2019-03-16T13:49:01.415Z,24.43
2019-03-16T13:51:29.864Z,40.37
2019-03-16T13:53:58.258Z,26.10
2019-03-16T13:56:26.621Z,36.33
2019-03-16T13:58:55.072Z,28.63
2019-03-16T14:01:23.500Z,22.83
2019-03-16T14:03:52.211Z,40.00
2019-03-16T14:06:20.660Z,25.53
2019-03-16T14:08:49.180Z,26.10
2019-03-16T14:11:17.571Z,17.10
2019-03-16T14:13:46.035Z,24.30
2019-03-16T14:16:15.028Z,13.03
2019-03-16T14:18:43.384Z,37.60
2019-03-16T14:21:11.890Z,15.30
2019-03-16T14:23:40.263Z,16.33
2019-03-16T14:26:08.677Z,16.43
2019-03-16T14:28:37.084Z,13.50
2019-03-16T14:31:05.544Z,17.87
2019-03-16T14:33:34.012Z,24.20
2019-03-16T14:36:02.765Z,17.90
2019-03-16T14:38:31.208Z,13.87
2019-03-16T14:40:59.600Z,18.63
2019-03-16T14:43:27.979Z,6.30
2019-03-16T14:45:56.503Z,15.10
2019-03-16T14:48:25.062Z,12.23
2019-03-16T14:50:53.863Z,11.73
2019-03-16T14:53:22.199Z,15.50
2019-03-16T14:55:50.735Z,14.10
2019-03-16T14:58:19.119Z,13.80
2019-03-16T15:00:47.828Z,10.90
2019-03-16T15:03:16.188Z,11.07
2019-03-16T15:05:45.922Z,9.00
2019-03-16T15:08:14.649Z,16.93
2019-03-16T15:10:43.054Z,8.37
2019-03-16T15:13:11.465Z,11.60
2019-03-16T15:15:39.828Z,7.07
2019-03-16T15:18:08.208Z,4.63
2019-03-16T15:20:36.606Z,4.87
2019-03-16T15:23:05.076Z,5.90
2019-03-16T15:25:33.490Z,6.40
2019-03-16T15:28:01.857Z,5.60
2019-03-16T15:30:30.248Z,5.37
2019-03-16T15:33:00.403Z,2.77
2019-03-16T15:35:28.823Z,7.60
2019-03-16T15:37:57.207Z,10.83
2019-03-16T15:40:25.579Z,4.23
2019-03-16T15:42:53.928Z,6.30
2019-03-16T15:45:22.372Z,4.90
2019-03-16T15:47:50.926Z,5.97
2019-03-16T15:50:19.375Z,9.33
2019-03-16T15:53:07.130Z,6.20
2019-03-16T15:55:35.585Z,3.70
2019-03-16T15:58:08.250Z,4.10
2019-03-16T16:00:34.408Z,12.87
2019-03-16T16:03:02.885Z,4.63
2019-03-16T16:05:31.309Z,5.07
2019-03-16T16:07:59.695Z,5.33
2019-03-16T16:10:28.063Z,2.93
2019-03-16T16:12:56.519Z,6.23
2019-03-16T16:15:24.978Z,6.80
2019-03-16T16:17:53.407Z,7.67
2019-03-16T16:20:21.795Z,5.37
2019-03-16T16:22:50.234Z,3.40
2019-03-16T16:25:18.758Z,10.20
2019-03-16T16:27:47.152Z,6.50
2019-03-16T16:30:15.633Z,8.60
2019-03-16T16:32:44.063Z,5.47
2019-03-16T16:35:12.615Z,4.80
2019-03-16T16:37:41.049Z,8.73
2019-03-16T16:40:09.943Z,8.30
2019-03-16T16:42:38.548Z,6.20
2019-03-16T16:45:07.645Z,5.50
2019-03-16T16:47:36.125Z,15.20
2019-03-16T16:50:05.319Z,12.23
2019-03-16T16:52:34.894Z,14.80
2019-03-16T16:55:03.329Z,15.73
2019-03-16T16:57:31.748Z,16.37
2019-03-16T17:00:01.432Z,11.50
2019-03-16T17:02:29.872Z,14.30
2019-03-16T17:04:58.435Z,17.07
2019-03-16T17:07:26.885Z,15.63
2019-03-16T17:09:55.356Z,14.80
2019-03-16T17:12:24.062Z,20.73
2019-03-16T17:14:52.590Z,17.53
2019-03-16T17:17:21.029Z,17.87
2019-03-16T17:19:49.457Z,19.27
2019-03-16T17:22:17.804Z,19.50
2019-03-16T17:24:46.204Z,22.13
2019-03-16T17:27:14.631Z,22.67
2019-03-16T17:29:44.194Z,25.80
2019-03-16T17:32:12.635Z,29.00
2019-03-16T17:34:41.406Z,29.13
2019-03-16T17:37:09.961Z,26.70
2019-03-16T17:39:38.321Z,25.83
2019-03-16T17:42:07.897Z,40.03
2019-03-16T17:44:36.472Z,22.80
2019-03-16T17:47:04.951Z,27.53
2019-03-16T17:49:33.330Z,36.93
2019-03-16T17:52:01.764Z,54.00
2019-03-16T17:54:30.128Z,63.60
2019-03-16T17:56:58.496Z,88.03
2019-03-16T17:59:26.872Z,96.07
2019-03-16T18:01:55.231Z,99.57
2019-03-16T18:04:23.733Z,93.13
2019-03-16T18:06:52.165Z,91.10
2019-03-16T18:09:20.582Z,89.13
2019-03-16T18:11:48.960Z,91.00
2019-03-16T18:14:17.415Z,89.87
2019-03-16T18:16:45.817Z,84.80
2019-03-16T18:19:14.210Z,88.57
2019-03-16T18:21:42.678Z,81.47
2019-03-16T18:24:11.114Z,82.57
2019-03-16T18:26:39.583Z,71.83
2019-03-16T18:29:08.033Z,75.50
2019-03-16T18:31:36.495Z,75.20
2019-03-16T18:34:05.206Z,79.40
2019-03-16T18:36:33.576Z,82.17
2019-03-16T18:39:02.013Z,78.23
2019-03-16T18:41:30.420Z,77.90
2019-03-16T18:43:58.792Z,73.40
2019-03-16T18:46:27.497Z,77.37
2019-03-16T18:48:56.045Z,66.67
2019-03-16T18:51:24.421Z,72.00
2019-03-16T18:53:52.889Z,67.60
2019-03-16T18:56:21.259Z,69.87
2019-03-16T18:58:49.736Z,69.23
2019-03-16T19:01:18.146Z,70.23
2019-03-16T19:03:46.520Z,62.20
2019-03-16T19:06:14.958Z,66.80
2019-03-16T19:08:43.364Z,63.80
2019-03-16T19:11:11.747Z,65.50
2019-03-16T19:13:40.231Z,64.37
2019-03-16T19:16:08.674Z,67.27
2019-03-16T19:18:39.367Z,53.50
2019-03-16T19:21:07.808Z,61.27
2019-03-16T19:23:36.206Z,57.30
2019-03-16T19:26:04.622Z,58.97
2019-03-16T19:28:33.047Z,65.33
2019-03-16T19:31:01.595Z,57.10
2019-03-16T19:33:29.959Z,62.27
2019-03-16T19:35:58.403Z,63.47
2019-03-16T19:38:27.303Z,55.23
2019-03-16T19:40:55.742Z,53.17
2019-03-16T19:43:24.141Z,54.30
2019-03-16T19:45:52.545Z,57.47
2019-03-16T19:48:21.003Z,60.90
2019-03-16T19:50:49.382Z,53.73
2019-03-16T19:53:17.854Z,60.40
2019-03-16T19:55:46.390Z,48.37
2019-03-16T19:58:14.779Z,57.33
2019-03-16T20:00:43.256Z,48.40
2019-03-16T20:03:11.963Z,46.17
2019-03-16T20:05:40.400Z,47.67
2019-03-16T20:08:08.829Z,47.77
2019-03-16T20:10:37.692Z,37.93
2019-03-16T20:13:06.162Z,43.97
2019-03-16T20:15:34.541Z,47.23
2019-03-16T20:18:02.915Z,49.83
2019-03-16T20:20:31.374Z,37.83
2019-03-16T20:22:59.760Z,40.40
2019-03-16T20:25:28.233Z,39.67
2019-03-16T20:27:56.625Z,41.47
2019-03-16T20:30:26.936Z,37.90
2019-03-16T20:33:03.832Z,35.07
2019-03-16T20:35:25.476Z,39.97
2019-03-16T20:37:53.924Z,37.80
2019-03-16T20:40:22.635Z,39.53
2019-03-16T20:42:51.112Z,36.80
2019-03-16T20:45:19.710Z,32.30
2019-03-16T20:47:48.286Z,36.60
2019-03-16T20:50:16.749Z,35.70
2019-03-16T20:52:45.223Z,36.17
2019-03-16T20:55:13.660Z,34.40
2019-03-16T20:57:42.136Z,32.70
2019-03-16T21:00:10.680Z,31.70
2019-03-16T21:02:39.110Z,33.17
2019-03-16T21:05:08.036Z,32.13
2019-03-16T21:07:36.485Z,39.00
2019-03-16T21:10:05.237Z,30.53
2019-03-16T21:12:33.615Z,29.87
2019-03-16T21:15:02.404Z,32.93
2019-03-16T21:17:30.774Z,29.20
2019-03-16T21:19:59.172Z,26.50
2019-03-16T21:22:36.253Z,26.10
2019-03-16T21:24:58.063Z,23.93
2019-03-16T21:27:26.448Z,29.03
2019-03-16T21:29:55.617Z,24.80
2019-03-16T21:32:24.068Z,26.20
2019-03-16T21:34:52.535Z,24.70
2019-03-16T21:37:20.914Z,24.40
2019-03-16T21:39:49.282Z,23.03
2019-03-16T21:42:17.943Z,27.40
2019-03-16T21:44:46.331Z,24.77
2019-03-16T21:47:15.037Z,27.00
2019-03-16T21:49:43.753Z,23.10
2019-03-16T21:52:12.145Z,24.00
2019-03-16T21:54:40.515Z,23.43
2019-03-16T21:57:09.116Z,22.70
2019-03-16T21:59:37.957Z,20.17
2019-03-16T22:02:06.340Z,21.87
2019-03-16T22:04:35.930Z,25.30
2019-03-16T22:07:04.453Z,17.43
2019-03-16T22:09:33.157Z,20.23
2019-03-16T22:12:01.587Z,17.87
2019-03-16T22:14:29.951Z,21.30
2019-03-16T22:16:58.702Z,24.33
2019-03-16T22:19:27.295Z,16.80
2019-03-16T22:21:55.764Z,18.17
2019-03-16T22:24:25.072Z,16.97
2019-03-16T22:26:54.097Z,18.27
2019-03-16T22:29:22.458Z,17.70
2019-03-16T22:31:50.982Z,18.00
2019-03-16T22:34:19.467Z,17.00
2019-03-16T22:36:47.982Z,18.20
2019-03-16T22:39:18.634Z,18.70
2019-03-16T22:41:47.064Z,15.70
2019-03-16T22:44:15.444Z,14.63
2019-03-16T22:46:44.296Z,15.53
2019-03-16T22:49:12.741Z,14.60
2019-03-16T22:51:41.123Z,16.30
2019-03-16T22:54:09.475Z,15.63
2019-03-16T22:56:37.941Z,14.93
2019-03-16T22:59:06.732Z,14.63
2019-03-16T23:01:37.657Z,13.50
2019-03-16T23:04:07.261Z,14.27
2019-03-16T23:06:35.949Z,14.87
2019-03-16T23:09:05.299Z,11.43
2019-03-16T23:11:33.744Z,14.33
2019-03-16T23:14:02.939Z,14.03
2019-03-16T23:16:31.657Z,12.70
2019-03-16T23:19:00.103Z,16.07
2019-03-16T23:21:28.716Z,10.23
2019-03-16T23:23:57.226Z,14.17
2019-03-16T23:26:37.757Z,11.50
2019-03-16T23:28:56.177Z,12.23
2019-03-16T23:31:24.551Z,11.80
2019-03-16T23:33:52.992Z,13.43
2019-03-16T23:36:21.427Z,11.63
2019-03-16T23:38:50.164Z,11.27
2019-03-16T23:41:18.893Z,13.07
2019-03-16T23:43:47.239Z,9.20
2019-03-16T23:46:15.928Z,8.77
2019-03-16T23:48:44.636Z,13.57
2019-03-16T23:51:13.084Z,13.33
2019-03-16T23:53:41.452Z,12.93
2019-03-16T23:56:10.076Z,9.63
2019-03-16T23:58:38.581Z,8.67
